createdAt,value
2023-05-09T00:03:11.968Z,13.70
2023-05-09T00:07:16.155Z,13.60
2023-05-09T00:11:20.385Z,13.60
2023-05-09T00:15:23.996Z,13.50
2023-05-09T00:19:26.788Z,13.50
2023-05-09T00:23:29.609Z,13.40
2023-05-09T00:27:33.861Z,13.40
2023-05-09T00:31:36.706Z,13.30
2023-05-09T00:35:39.576Z,13.30
2023-05-09T00:39:42.400Z,13.20
2023-05-09T00:43:46.585Z,13.10
2023-05-09T00:47:49.427Z,13.10
2023-05-09T00:51:52.762Z,13.00
2023-05-09T00:55:56.364Z,13.00
2023-05-09T01:00:01.366Z,12.90
2023-05-09T01:04:04.236Z,12.80
2023-05-09T01:08:11.459Z,12.80
2023-05-09T01:12:17.708Z,12.70
2023-05-09T01:16:27.823Z,12.70
2023-05-09T01:20:33.958Z,12.70
2023-05-09T01:24:51.690Z,12.60
2023-05-09T01:29:03.872Z,12.50
2023-05-09T01:33:09.018Z,12.50
2023-05-09T01:37:14.307Z,12.40
2023-05-09T01:41:17.810Z,12.30
2023-05-09T01:45:21.709Z,12.30
2023-05-09T01:49:26.305Z,12.30
2023-05-09T01:53:29.643Z,12.20
2023-05-09T01:57:33.079Z,12.20
2023-05-09T02:01:36.064Z,12.20
2023-05-09T02:05:40.809Z,12.20
2023-05-09T02:09:43.625Z,12.20
2023-05-09T02:13:46.465Z,12.20
2023-05-09T02:17:49.336Z,12.20
2023-05-09T02:21:53.535Z,12.10
2023-05-09T02:25:56.491Z,12.10
2023-05-09T02:30:02.503Z,12.10
2023-05-09T02:34:06.384Z,12.10
2023-05-09T02:38:10.881Z,12.00
2023-05-09T02:42:14.739Z,11.90
2023-05-09T02:46:17.567Z,11.80
2023-05-09T02:50:20.699Z,11.80
2023-05-09T02:54:25.096Z,11.80
2023-05-09T02:58:28.066Z,11.70
2023-05-09T03:02:31.158Z,11.70
2023-05-09T03:06:34.229Z,11.60
2023-05-09T03:10:38.589Z,11.50
2023-05-09T03:14:41.603Z,11.50
2023-05-09T03:18:44.602Z,11.50
2023-05-09T03:22:48.425Z,11.40
2023-05-09T03:26:52.762Z,11.40
2023-05-09T03:30:55.763Z,11.40
2023-05-09T03:34:58.740Z,11.40
2023-05-09T03:39:01.725Z,11.40
2023-05-09T03:43:06.131Z,11.40
2023-05-09T03:47:09.110Z,11.40
2023-05-09T03:51:12.262Z,11.40
2023-05-09T03:55:15.412Z,11.30
2023-05-09T03:59:20.837Z,11.30
2023-05-09T04:03:23.973Z,11.30
2023-05-09T04:07:28.470Z,11.30
2023-05-09T04:11:31.495Z,11.30
2023-05-09T04:15:35.861Z,11.30
2023-05-09T04:19:38.884Z,11.30
2023-05-09T04:23:43.681Z,11.30
2023-05-09T04:27:46.691Z,11.40
2023-05-09T04:31:51.052Z,11.40
2023-05-09T04:35:55.209Z,11.50
2023-05-09T04:39:58.190Z,11.50
2023-05-09T04:44:02.130Z,11.50
2023-05-09T04:48:06.892Z,11.60
2023-05-09T04:52:09.931Z,11.60
2023-05-09T04:56:12.938Z,11.70
2023-05-09T05:00:18.371Z,11.70
2023-05-09T05:04:23.048Z,11.80
2023-05-09T05:08:26.193Z,11.80
2023-05-09T05:12:29.203Z,11.90
2023-05-09T05:16:32.256Z,11.90
2023-05-09T05:20:36.774Z,12.00
2023-05-09T05:24:41.880Z,12.00
2023-05-09T05:28:44.864Z,12.10
2023-05-09T05:32:48.038Z,12.20
2023-05-09T05:36:52.469Z,12.20
2023-05-09T05:40:55.469Z,12.30
2023-05-09T05:45:04.229Z,12.30
2023-05-09T05:49:07.238Z,12.40
2023-05-09T05:53:11.730Z,12.40
2023-05-09T05:57:15.008Z,12.50
2023-05-09T06:01:18.064Z,12.60
2023-05-09T06:05:21.222Z,12.70
2023-05-09T06:09:25.588Z,12.90
2023-05-09T06:13:28.724Z,13.00
2023-05-09T06:17:31.781Z,13.10
2023-05-09T06:21:35.283Z,13.30
2023-05-09T06:25:39.999Z,13.40
2023-05-09T06:29:42.828Z,13.60
2023-05-09T06:33:45.805Z,13.70
2023-05-09T06:41:53.948Z,14.10
2023-05-09T06:45:56.980Z,14.30
2023-05-09T06:50:00.249Z,14.50
2023-05-09T06:54:03.335Z,14.70
2023-05-09T06:58:07.758Z,14.90
2023-05-09T07:02:10.828Z,15.10
2023-05-09T07:06:13.950Z,15.30
2023-05-09T07:10:17.257Z,15.40
2023-05-09T07:14:21.638Z,15.60
2023-05-09T07:18:24.643Z,15.70
2023-05-09T07:22:29.944Z,15.90
2023-05-09T07:26:36.084Z,16.00
2023-05-09T07:30:40.486Z,16.20
2023-05-09T07:34:43.473Z,16.50
2023-05-09T07:38:47.910Z,16.80
2023-05-09T07:42:51.708Z,17.10
2023-05-09T07:46:56.115Z,17.60
2023-05-09T07:50:59.405Z,17.70
2023-05-09T07:55:02.565Z,18.00
2023-05-09T07:59:05.548Z,18.30
2023-05-09T08:03:10.164Z,18.50
2023-05-09T08:07:13.366Z,18.70
2023-05-09T08:11:16.502Z,19.10
2023-05-09T08:15:19.521Z,19.20
2023-05-09T08:19:26.201Z,19.50
2023-05-09T08:23:30.362Z,19.60
2023-05-09T08:27:33.415Z,19.80
2023-05-09T08:35:41.222Z,20.10
2023-05-09T08:39:44.398Z,20.20
2023-05-09T08:43:47.606Z,20.30
2023-05-09T08:48:04.896Z,20.30
2023-05-09T08:52:11.465Z,20.30
2023-05-09T08:56:16.681Z,20.30
2023-05-09T09:00:21.807Z,20.30
2023-05-09T09:04:25.088Z,20.30
2023-05-09T09:08:30.070Z,20.30
2023-05-09T09:12:33.957Z,20.30
2023-05-09T09:16:38.750Z,20.40
2023-05-09T09:20:46.878Z,20.50
2023-05-09T09:24:52.102Z,20.70
2023-05-09T09:28:57.018Z,21.00
2023-05-09T09:33:00.659Z,21.20
2023-05-09T09:37:07.714Z,21.40
2023-05-09T09:41:13.268Z,21.50
2023-05-09T09:45:17.636Z,21.60
2023-05-09T09:49:28.591Z,21.80
2023-05-09T09:53:31.729Z,22.00
2023-05-09T09:57:51.205Z,22.30
2023-05-09T10:01:59.575Z,22.50
2023-05-09T10:06:03.964Z,22.80
2023-05-09T10:10:08.097Z,23.00
2023-05-09T10:14:12.803Z,23.20
2023-05-09T10:18:19.904Z,23.40
2023-05-09T10:22:24.940Z,23.60
2023-05-09T10:26:31.768Z,23.80
2023-05-09T10:30:42.232Z,24.00
2023-05-09T10:34:50.568Z,24.20
2023-05-09T10:38:55.375Z,24.20
2023-05-09T10:42:58.430Z,24.20
2023-05-09T10:47:03.131Z,24.10
2023-05-09T10:51:08.035Z,24.10
2023-05-09T10:55:11.457Z,24.00
2023-05-09T10:59:29.272Z,24.00
2023-05-09T11:03:54.321Z,24.00
2023-05-09T11:08:12.088Z,23.90
2023-05-09T11:12:15.608Z,23.80
2023-05-09T11:16:18.463Z,23.90
2023-05-09T11:20:29.070Z,23.90
2023-05-09T11:24:32.711Z,24.00
2023-05-09T11:28:36.771Z,24.10
2023-05-09T11:32:44.169Z,24.20
2023-05-09T11:36:50.542Z,24.20
2023-05-09T11:40:54.813Z,24.10
2023-05-09T11:44:57.976Z,24.00
2023-05-09T11:49:01.009Z,24.00
2023-05-09T11:53:08.338Z,23.90
2023-05-09T11:57:11.813Z,23.90
2023-05-09T12:01:14.723Z,23.90
2023-05-09T12:05:18.718Z,23.90
2023-05-09T12:09:23.152Z,23.90
2023-05-09T12:13:27.966Z,23.90
2023-05-09T12:17:31.486Z,23.80
2023-05-09T12:21:34.466Z,23.80
2023-05-09T12:25:38.749Z,23.80
2023-05-09T12:29:46.135Z,23.80
2023-05-09T12:33:49.183Z,23.80
2023-05-09T12:37:59.121Z,23.80
2023-05-09T12:42:03.530Z,23.80
2023-05-09T12:46:08.748Z,23.90
2023-05-09T12:50:12.633Z,24.00
2023-05-09T12:54:20.624Z,24.00
2023-05-09T12:58:25.031Z,24.10
2023-05-09T13:02:29.665Z,24.20
2023-05-09T13:06:32.917Z,24.20
2023-05-09T13:10:35.907Z,24.20
2023-05-09T13:14:40.629Z,24.10
2023-05-09T13:18:43.622Z,24.10
2023-05-09T13:22:47.523Z,24.10
2023-05-09T13:26:50.515Z,24.10
2023-05-09T13:30:54.765Z,24.10
2023-05-09T13:34:57.579Z,24.20
2023-05-09T13:39:00.462Z,24.40
2023-05-09T13:43:03.640Z,24.60
2023-05-09T13:47:08.704Z,24.80
2023-05-09T13:51:11.696Z,24.90
2023-05-09T13:55:14.840Z,25.00
2023-05-09T13:59:17.976Z,25.10
2023-05-09T14:03:22.402Z,25.20
2023-05-09T14:07:25.539Z,25.30
2023-05-09T14:11:28.675Z,25.30
2023-05-09T14:15:31.665Z,25.30
2023-05-09T14:19:36.996Z,25.40
2023-05-09T14:23:40.215Z,25.40
2023-05-09T14:27:43.844Z,25.40
2023-05-09T14:31:46.985Z,25.40
2023-05-09T14:35:51.429Z,25.30
2023-05-09T14:39:54.263Z,25.20
2023-05-09T14:43:59.368Z,25.00
2023-05-09T14:48:03.238Z,24.90
2023-05-09T14:52:07.934Z,24.90
2023-05-09T14:56:11.889Z,24.80
2023-05-09T15:00:21.146Z,24.70
2023-05-09T15:04:28.286Z,24.70
2023-05-09T15:08:32.753Z,24.80
2023-05-09T15:12:36.748Z,24.90
2023-05-09T15:16:39.779Z,25.00
2023-05-09T15:20:42.794Z,25.10
2023-05-09T15:24:47.251Z,25.20
2023-05-09T15:28:50.296Z,25.20
2023-05-09T15:32:53.364Z,25.20
2023-05-09T15:36:56.381Z,25.30
2023-05-09T15:41:00.812Z,25.20
2023-05-09T15:45:04.014Z,25.20
2023-05-09T15:49:07.018Z,25.20
2023-05-09T15:53:10.205Z,25.20
2023-05-09T15:57:14.685Z,25.20
2023-05-09T16:01:17.742Z,25.00
2023-05-09T16:05:20.746Z,24.90
2023-05-09T16:09:23.811Z,24.80
2023-05-09T16:13:28.369Z,24.60
2023-05-09T16:17:32.007Z,24.40
2023-05-09T16:21:35.363Z,24.30
2023-05-09T16:25:38.379Z,24.20
2023-05-09T16:29:42.728Z,24.00
2023-05-09T16:33:47.112Z,23.90
2023-05-09T16:37:50.159Z,23.80
2023-05-09T16:41:54.214Z,23.70
2023-05-09T16:45:58.704Z,23.60
2023-05-09T16:50:01.892Z,23.50
2023-05-09T16:54:11.145Z,23.40
2023-05-09T16:58:14.134Z,23.30
2023-05-09T17:02:18.584Z,23.20
2023-05-09T17:06:22.246Z,23.20
2023-05-09T17:10:25.230Z,23.10
2023-05-09T17:14:28.215Z,23.00
2023-05-09T17:18:37.512Z,22.90
2023-05-09T17:22:41.383Z,22.90
2023-05-09T17:26:45.168Z,22.80
2023-05-09T17:30:48.350Z,22.70
2023-05-09T17:34:53.462Z,22.60
2023-05-09T17:38:59.530Z,22.50
2023-05-09T17:43:04.575Z,22.50
2023-05-09T17:47:16.923Z,22.40
2023-05-09T17:51:23.330Z,22.30
2023-05-09T17:55:26.356Z,22.20
2023-05-09T17:59:29.642Z,22.20
2023-05-09T18:03:34.009Z,22.10
2023-05-09T18:07:39.768Z,22.00
2023-05-09T18:11:48.881Z,22.00
2023-05-09T18:15:54.109Z,21.90
2023-05-09T18:19:57.156Z,21.90
2023-05-09T18:24:05.780Z,21.80
2023-05-09T18:28:09.168Z,21.80
2023-05-09T18:32:12.184Z,21.70
2023-05-09T18:36:20.693Z,21.60
2023-05-09T18:40:25.192Z,21.60
2023-05-09T18:44:28.280Z,21.50
2023-05-09T18:48:31.510Z,21.50
2023-05-09T18:52:35.268Z,21.30
2023-05-09T18:56:46.163Z,21.30
2023-05-09T19:05:08.297Z,21.00
2023-05-09T19:09:11.363Z,20.90
2023-05-09T19:13:16.643Z,20.90
2023-05-09T19:17:19.899Z,20.80
2023-05-09T19:21:23.031Z,20.60
2023-05-09T19:25:26.779Z,20.50
2023-05-09T19:29:31.225Z,20.50
2023-05-09T19:33:34.851Z,20.40
2023-05-09T19:37:38.198Z,20.30
2023-05-09T19:41:42.054Z,20.20
2023-05-09T19:45:46.479Z,20.10
2023-05-09T19:49:49.472Z,20.00
2023-05-09T19:53:52.546Z,19.90
2023-05-09T19:57:55.521Z,19.90
2023-05-09T20:01:59.998Z,19.80
2023-05-09T20:06:03.108Z,19.70
2023-05-09T20:10:06.854Z,19.70
2023-05-09T20:14:09.995Z,19.60
2023-05-09T20:18:16.298Z,19.60
2023-05-09T20:22:19.493Z,19.50
2023-05-09T20:26:24.999Z,19.50
2023-05-09T20:30:28.218Z,19.40
2023-05-09T20:34:32.667Z,19.40
2023-05-09T20:38:35.729Z,19.40
2023-05-09T20:42:39.267Z,19.30
2023-05-09T20:46:42.302Z,19.30
2023-05-09T20:50:47.666Z,19.20
2023-05-09T20:54:50.640Z,19.20
2023-05-09T20:58:53.650Z,19.10
2023-05-09T21:02:58.499Z,19.20
2023-05-09T21:07:03.261Z,19.10
2023-05-09T21:11:06.229Z,19.00
2023-05-09T21:15:10.231Z,19.00
2023-05-09T21:19:13.219Z,19.00
2023-05-09T21:23:18.598Z,18.90
2023-05-09T21:27:21.768Z,18.80
2023-05-09T21:31:24.829Z,18.80
2023-05-09T21:35:27.861Z,18.70
2023-05-09T21:39:33.508Z,18.70
2023-05-09T21:43:37.530Z,18.60
2023-05-09T21:47:40.893Z,18.50
2023-05-09T21:51:44.005Z,18.40
2023-05-09T21:55:48.445Z,18.40
2023-05-09T21:59:51.428Z,18.30
2023-05-09T22:03:54.553Z,18.20
2023-05-09T22:07:57.676Z,18.20
2023-05-09T22:12:02.380Z,18.20
2023-05-09T22:16:07.191Z,18.10
2023-05-09T22:20:10.920Z,18.00
2023-05-09T22:24:14.113Z,18.00
2023-05-09T22:28:18.524Z,17.90
2023-05-09T22:32:21.535Z,17.90
2023-05-09T22:36:24.548Z,17.80
2023-05-09T22:40:27.699Z,17.80
2023-05-09T22:44:32.574Z,17.70
2023-05-09T22:48:35.678Z,17.70
2023-05-09T22:52:38.666Z,17.70
2023-05-09T22:56:43.114Z,17.60
2023-05-09T23:00:47.479Z,17.60
2023-05-09T23:04:50.477Z,17.50
2023-05-09T23:08:53.491Z,17.50
2023-05-09T23:12:56.525Z,17.40
2023-05-09T23:17:00.874Z,17.40
2023-05-09T23:21:04.155Z,17.40
2023-05-09T23:25:08.685Z,17.30
2023-05-09T23:29:11.714Z,17.40
2023-05-09T23:33:16.250Z,17.30
2023-05-09T23:37:19.280Z,17.30
2023-05-09T23:41:22.529Z,17.30
2023-05-09T23:45:25.693Z,17.20
2023-05-09T23:49:30.219Z,17.20
2023-05-09T23:53:35.325Z,17.10
2023-05-09T23:57:38.407Z,17.10
